sensor_id;sensor_type;location;lat;lon;timestamp;P1;durP1;ratioP1;P2;durP2;ratioP2
77026;SDS011;65956;52.986;17.490;2023-01-29T00:00:04;11.80;;;5.70;;
77026;SDS011;65956;52.986;17.490;2023-01-29T00:02:59;12.00;;;5.70;;
77026;SDS011;65956;52.986;17.490;2023-01-29T00:05:26;14.90;;;5.70;;
77026;SDS011;65956;52.986;17.490;2023-01-29T00:07:54;14.10;;;5.40;;
77026;SDS011;65956;52.986;17.490;2023-01-29T00:10:25;13.10;;;5.80;;
77026;SDS011;65956;52.986;17.490;2023-01-29T00:12:52;12.40;;;5.30;;
77026;SDS011;65956;52.986;17.490;2023-01-29T00:15:20;12.70;;;5.80;;
77026;SDS011;65956;52.986;17.490;2023-01-29T00:17:47;12.40;;;5.70;;
77026;SDS011;65956;52.986;17.490;2023-01-29T00:20:14;13.50;;;5.40;;
77026;SDS011;65956;52.986;17.490;2023-01-29T00:22:42;16.80;;;6.00;;
77026;SDS011;65956;52.986;17.490;2023-01-29T00:25:09;9.40;;;4.60;;
77026;SDS011;65956;52.986;17.490;2023-01-29T00:27:37;8.80;;;4.10;;
77026;SDS011;65956;52.986;17.490;2023-01-29T00:30:05;9.90;;;4.40;;
77026;SDS011;65956;52.986;17.490;2023-01-29T00:32:39;10.40;;;5.10;;
77026;SDS011;65956;52.986;17.490;2023-01-29T00:35:07;11.30;;;4.50;;
77026;SDS011;65956;52.986;17.490;2023-01-29T00:37:36;9.40;;;4.30;;
77026;SDS011;65956;52.986;17.490;2023-01-29T00:40:04;10.20;;;4.50;;
77026;SDS011;65956;52.986;17.490;2023-01-29T00:42:32;11.00;;;4.20;;
77026;SDS011;65956;52.986;17.490;2023-01-29T00:45:18;10.30;;;4.40;;
77026;SDS011;65956;52.986;17.490;2023-01-29T00:47:45;8.10;;;3.50;;
77026;SDS011;65956;52.986;17.490;2023-01-29T00:50:13;8.10;;;4.10;;
77026;SDS011;65956;52.986;17.490;2023-01-29T00:52:40;8.80;;;3.60;;
77026;SDS011;65956;52.986;17.490;2023-01-29T00:55:09;6.90;;;3.20;;
77026;SDS011;65956;52.986;17.490;2023-01-29T00:57:37;9.00;;;3.70;;
77026;SDS011;65956;52.986;17.490;2023-01-29T01:00:06;8.50;;;3.70;;
77026;SDS011;65956;52.986;17.490;2023-01-29T01:02:36;8.90;;;3.20;;
77026;SDS011;65956;52.986;17.490;2023-01-29T01:05:25;8.50;;;3.90;;
77026;SDS011;65956;52.986;17.490;2023-01-29T01:07:55;7.80;;;3.80;;
77026;SDS011;65956;52.986;17.490;2023-01-29T01:10:25;7.30;;;3.70;;
77026;SDS011;65956;52.986;17.490;2023-01-29T01:13:02;7.50;;;3.40;;
77026;SDS011;65956;52.986;17.490;2023-01-29T01:15:35;9.00;;;3.60;;
77026;SDS011;65956;52.986;17.490;2023-01-29T01:18:04;7.20;;;3.70;;
77026;SDS011;65956;52.986;17.490;2023-01-29T01:20:34;8.90;;;3.70;;
77026;SDS011;65956;52.986;17.490;2023-01-29T01:23:02;8.90;;;3.10;;
77026;SDS011;65956;52.986;17.490;2023-01-29T01:25:31;7.50;;;3.90;;
77026;SDS011;65956;52.986;17.490;2023-01-29T01:28:01;9.40;;;3.80;;
77026;SDS011;65956;52.986;17.490;2023-01-29T01:30:28;9.20;;;3.90;;
77026;SDS011;65956;52.986;17.490;2023-01-29T01:32:56;7.90;;;3.40;;
77026;SDS011;65956;52.986;17.490;2023-01-29T01:35:23;8.50;;;3.60;;
77026;SDS011;65956;52.986;17.490;2023-01-29T01:37:50;9.10;;;3.70;;
77026;SDS011;65956;52.986;17.490;2023-01-29T01:40:19;5.90;;;2.40;;
77026;SDS011;65956;52.986;17.490;2023-01-29T01:42:51;7.20;;;3.00;;
77026;SDS011;65956;52.986;17.490;2023-01-29T01:47:58;8.30;;;3.30;;
77026;SDS011;65956;52.986;17.490;2023-01-29T01:50:31;9.00;;;3.70;;
77026;SDS011;65956;52.986;17.490;2023-01-29T01:53:13;7.90;;;3.50;;
77026;SDS011;65956;52.986;17.490;2023-01-29T01:55:47;10.00;;;3.70;;
77026;SDS011;65956;52.986;17.490;2023-01-29T01:58:37;9.00;;;3.00;;
77026;SDS011;65956;52.986;17.490;2023-01-29T02:01:12;7.90;;;3.30;;
77026;SDS011;65956;52.986;17.490;2023-01-29T02:03:42;8.40;;;3.50;;
77026;SDS011;65956;52.986;17.490;2023-01-29T02:06:35;7.60;;;3.00;;
77026;SDS011;65956;52.986;17.490;2023-01-29T02:09:28;8.70;;;3.50;;
77026;SDS011;65956;52.986;17.490;2023-01-29T02:12:26;7.10;;;3.10;;
77026;SDS011;65956;52.986;17.490;2023-01-29T02:14:58;8.20;;;3.40;;
77026;SDS011;65956;52.986;17.490;2023-01-29T02:17:26;8.00;;;2.80;;
77026;SDS011;65956;52.986;17.490;2023-01-29T02:25:34;6.60;;;2.60;;
77026;SDS011;65956;52.986;17.490;2023-01-29T02:34:27;6.60;;;3.30;;
77026;SDS011;65956;52.986;17.490;2023-01-29T02:37:18;8.90;;;3.00;;
77026;SDS011;65956;52.986;17.490;2023-01-29T02:40:00;7.90;;;2.80;;
77026;SDS011;65956;52.986;17.490;2023-01-29T02:43:28;6.40;;;2.90;;
77026;SDS011;65956;52.986;17.490;2023-01-29T02:49:22;7.80;;;3.00;;
77026;SDS011;65956;52.986;17.490;2023-01-29T02:52:06;9.50;;;3.00;;
77026;SDS011;65956;52.986;17.490;2023-01-29T02:55:00;6.90;;;2.80;;
77026;SDS011;65956;52.986;17.490;2023-01-29T02:57:36;5.90;;;3.00;;
77026;SDS011;65956;52.986;17.490;2023-01-29T03:00:34;6.20;;;2.70;;
77026;SDS011;65956;52.986;17.490;2023-01-29T03:03:08;8.70;;;2.50;;
77026;SDS011;65956;52.986;17.490;2023-01-29T03:05:59;7.30;;;3.00;;
77026;SDS011;65956;52.986;17.490;2023-01-29T03:08:35;6.30;;;3.00;;
77026;SDS011;65956;52.986;17.490;2023-01-29T03:11:16;8.40;;;3.30;;
77026;SDS011;65956;52.986;17.490;2023-01-29T03:13:49;8.30;;;2.80;;
77026;SDS011;65956;52.986;17.490;2023-01-29T03:16:50;11.10;;;3.40;;
77026;SDS011;65956;52.986;17.490;2023-01-29T03:21:52;6.80;;;2.80;;
77026;SDS011;65956;52.986;17.490;2023-01-29T03:24:41;7.40;;;3.30;;
77026;SDS011;65956;52.986;17.490;2023-01-29T03:27:35;5.90;;;3.00;;
77026;SDS011;65956;52.986;17.490;2023-01-29T03:30:39;6.70;;;3.10;;
77026;SDS011;65956;52.986;17.490;2023-01-29T03:33:59;6.30;;;2.90;;
77026;SDS011;65956;52.986;17.490;2023-01-29T03:39:05;10.20;;;4.20;;
77026;SDS011;65956;52.986;17.490;2023-01-29T03:41:38;6.70;;;3.00;;
77026;SDS011;65956;52.986;17.490;2023-01-29T03:44:37;8.70;;;3.30;;
77026;SDS011;65956;52.986;17.490;2023-01-29T03:47:43;5.90;;;2.90;;
77026;SDS011;65956;52.986;17.490;2023-01-29T03:50:20;5.90;;;2.90;;
77026;SDS011;65956;52.986;17.490;2023-01-29T03:58:57;6.10;;;3.00;;
77026;SDS011;65956;52.986;17.490;2023-01-29T04:02:20;6.10;;;2.90;;
77026;SDS011;65956;52.986;17.490;2023-01-29T04:05:03;9.30;;;4.50;;
77026;SDS011;65956;52.986;17.490;2023-01-29T04:07:41;11.80;;;5.10;;
77026;SDS011;65956;52.986;17.490;2023-01-29T04:10:13;13.00;;;5.80;;
77026;SDS011;65956;52.986;17.490;2023-01-29T04:12:54;17.00;;;6.60;;
77026;SDS011;65956;52.986;17.490;2023-01-29T04:15:27;15.60;;;7.30;;
77026;SDS011;65956;52.986;17.490;2023-01-29T04:18:00;9.60;;;4.40;;
77026;SDS011;65956;52.986;17.490;2023-01-29T04:20:37;9.80;;;4.50;;
77026;SDS011;65956;52.986;17.490;2023-01-29T04:23:05;10.50;;;4.70;;
77026;SDS011;65956;52.986;17.490;2023-01-29T04:25:35;10.90;;;4.40;;
77026;SDS011;65956;52.986;17.490;2023-01-29T04:28:25;9.30;;;4.70;;
77026;SDS011;65956;52.986;17.490;2023-01-29T04:31:07;12.80;;;5.20;;
77026;SDS011;65956;52.986;17.490;2023-01-29T04:34:16;12.10;;;6.00;;
77026;SDS011;65956;52.986;17.490;2023-01-29T04:36:45;9.60;;;4.20;;
77026;SDS011;65956;52.986;17.490;2023-01-29T04:39:38;12.20;;;4.30;;
77026;SDS011;65956;52.986;17.490;2023-01-29T04:42:22;8.90;;;4.20;;
77026;SDS011;65956;52.986;17.490;2023-01-29T04:47:55;9.50;;;4.30;;
77026;SDS011;65956;52.986;17.490;2023-01-29T04:53:53;6.30;;;3.00;;
77026;SDS011;65956;52.986;17.490;2023-01-29T04:59:13;9.50;;;4.70;;
77026;SDS011;65956;52.986;17.490;2023-01-29T05:01:46;10.60;;;5.00;;
77026;SDS011;65956;52.986;17.490;2023-01-29T05:04:15;9.30;;;4.00;;
77026;SDS011;65956;52.986;17.490;2023-01-29T05:06:46;11.00;;;5.30;;
77026;SDS011;65956;52.986;17.490;2023-01-29T05:09:17;11.00;;;5.20;;
77026;SDS011;65956;52.986;17.490;2023-01-29T05:11:46;10.50;;;4.80;;
77026;SDS011;65956;52.986;17.490;2023-01-29T05:14:16;11.70;;;4.90;;
77026;SDS011;65956;52.986;17.490;2023-01-29T05:16:46;9.80;;;4.60;;
77026;SDS011;65956;52.986;17.490;2023-01-29T05:19:18;12.90;;;5.50;;
77026;SDS011;65956;52.986;17.490;2023-01-29T05:21:46;11.80;;;4.70;;
77026;SDS011;65956;52.986;17.490;2023-01-29T05:24:19;19.90;;;7.90;;
77026;SDS011;65956;52.986;17.490;2023-01-29T05:26:48;12.60;;;4.50;;
77026;SDS011;65956;52.986;17.490;2023-01-29T05:29:36;13.80;;;5.20;;
77026;SDS011;65956;52.986;17.490;2023-01-29T05:32:04;11.20;;;4.10;;
77026;SDS011;65956;52.986;17.490;2023-01-29T05:34:31;17.60;;;6.20;;
77026;SDS011;65956;52.986;17.490;2023-01-29T05:37:00;12.30;;;5.30;;
77026;SDS011;65956;52.986;17.490;2023-01-29T05:39:27;9.60;;;4.80;;
77026;SDS011;65956;52.986;17.490;2023-01-29T05:41:57;14.60;;;6.30;;
77026;SDS011;65956;52.986;17.490;2023-01-29T05:44:25;20.10;;;6.90;;
77026;SDS011;65956;52.986;17.490;2023-01-29T05:46:53;13.30;;;6.20;;
77026;SDS011;65956;52.986;17.490;2023-01-29T05:49:20;17.30;;;6.60;;
77026;SDS011;65956;52.986;17.490;2023-01-29T05:51:50;14.00;;;5.80;;
77026;SDS011;65956;52.986;17.490;2023-01-29T05:54:17;13.80;;;6.40;;
77026;SDS011;65956;52.986;17.490;2023-01-29T05:56:45;14.60;;;6.30;;
77026;SDS011;65956;52.986;17.490;2023-01-29T05:59:13;14.40;;;6.00;;
77026;SDS011;65956;52.986;17.490;2023-01-29T06:01:41;15.00;;;7.30;;
77026;SDS011;65956;52.986;17.490;2023-01-29T06:04:09;12.20;;;6.30;;
77026;SDS011;65956;52.986;17.490;2023-01-29T06:06:36;9.30;;;4.70;;
77026;SDS011;65956;52.986;17.490;2023-01-29T06:09:03;16.50;;;6.70;;
77026;SDS011;65956;52.986;17.490;2023-01-29T06:11:30;13.90;;;6.00;;
77026;SDS011;65956;52.986;17.490;2023-01-29T06:13:57;12.80;;;6.20;;
77026;SDS011;65956;52.986;17.490;2023-01-29T06:16:26;14.80;;;7.00;;
77026;SDS011;65956;52.986;17.490;2023-01-29T06:18:53;16.50;;;6.70;;
77026;SDS011;65956;52.986;17.490;2023-01-29T06:21:20;12.40;;;6.60;;
77026;SDS011;65956;52.986;17.490;2023-01-29T06:23:47;11.10;;;5.90;;
77026;SDS011;65956;52.986;17.490;2023-01-29T06:26:15;11.80;;;5.00;;
77026;SDS011;65956;52.986;17.490;2023-01-29T06:28:42;13.20;;;6.50;;
77026;SDS011;65956;52.986;17.490;2023-01-29T06:31:11;11.70;;;5.80;;
77026;SDS011;65956;52.986;17.490;2023-01-29T06:33:38;11.40;;;5.50;;
77026;SDS011;65956;52.986;17.490;2023-01-29T06:36:06;11.80;;;5.70;;
77026;SDS011;65956;52.986;17.490;2023-01-29T06:38:33;11.10;;;5.50;;
77026;SDS011;65956;52.986;17.490;2023-01-29T06:41:06;12.90;;;5.40;;
77026;SDS011;65956;52.986;17.490;2023-01-29T06:43:35;13.20;;;6.10;;
77026;SDS011;65956;52.986;17.490;2023-01-29T06:46:05;8.40;;;4.60;;
77026;SDS011;65956;52.986;17.490;2023-01-29T06:48:34;11.30;;;5.90;;
77026;SDS011;65956;52.986;17.490;2023-01-29T06:51:06;11.80;;;5.70;;
77026;SDS011;65956;52.986;17.490;2023-01-29T06:53:35;11.40;;;5.80;;
77026;SDS011;65956;52.986;17.490;2023-01-29T06:56:04;12.10;;;5.90;;
77026;SDS011;65956;52.986;17.490;2023-01-29T06:58:32;10.20;;;5.40;;
77026;SDS011;65956;52.986;17.490;2023-01-29T07:01:06;10.50;;;5.40;;
77026;SDS011;65956;52.986;17.490;2023-01-29T07:03:35;10.40;;;5.40;;
77026;SDS011;65956;52.986;17.490;2023-01-29T07:06:03;10.70;;;5.30;;
77026;SDS011;65956;52.986;17.490;2023-01-29T07:08:36;10.10;;;4.70;;
77026;SDS011;65956;52.986;17.490;2023-01-29T07:11:08;7.80;;;3.00;;
77026;SDS011;65956;52.986;17.490;2023-01-29T07:13:36;12.90;;;5.30;;
77026;SDS011;65956;52.986;17.490;2023-01-29T07:16:04;9.50;;;4.50;;
77026;SDS011;65956;52.986;17.490;2023-01-29T07:18:32;11.10;;;6.00;;
77026;SDS011;65956;52.986;17.490;2023-01-29T07:21:02;13.00;;;5.60;;
77026;SDS011;65956;52.986;17.490;2023-01-29T07:23:32;14.60;;;6.60;;
77026;SDS011;65956;52.986;17.490;2023-01-29T07:26:03;11.40;;;6.00;;
77026;SDS011;65956;52.986;17.490;2023-01-29T07:28:38;12.80;;;4.70;;
77026;SDS011;65956;52.986;17.490;2023-01-29T07:31:07;8.40;;;4.40;;
77026;SDS011;65956;52.986;17.490;2023-01-29T07:33:37;13.20;;;6.10;;
77026;SDS011;65956;52.986;17.490;2023-01-29T07:36:06;11.10;;;5.90;;
77026;SDS011;65956;52.986;17.490;2023-01-29T07:38:34;11.30;;;6.10;;
77026;SDS011;65956;52.986;17.490;2023-01-29T07:41:02;12.40;;;6.20;;
77026;SDS011;65956;52.986;17.490;2023-01-29T07:43:29;13.00;;;5.70;;
77026;SDS011;65956;52.986;17.490;2023-01-29T07:46:00;10.90;;;5.80;;
77026;SDS011;65956;52.986;17.490;2023-01-29T07:48:28;14.40;;;7.30;;
77026;SDS011;65956;52.986;17.490;2023-01-29T07:50:56;10.90;;;6.00;;
77026;SDS011;65956;52.986;17.490;2023-01-29T07:53:24;11.50;;;5.90;;
77026;SDS011;65956;52.986;17.490;2023-01-29T07:55:53;11.20;;;6.20;;
77026;SDS011;65956;52.986;17.490;2023-01-29T07:58:20;11.10;;;6.40;;
77026;SDS011;65956;52.986;17.490;2023-01-29T08:00:48;17.00;;;6.80;;
77026;SDS011;65956;52.986;17.490;2023-01-29T08:03:16;9.00;;;4.10;;
77026;SDS011;65956;52.986;17.490;2023-01-29T08:05:45;10.10;;;5.80;;
77026;SDS011;65956;52.986;17.490;2023-01-29T08:08:13;12.10;;;6.60;;
77026;SDS011;65956;52.986;17.490;2023-01-29T08:10:40;12.70;;;6.60;;
77026;SDS011;65956;52.986;17.490;2023-01-29T08:13:08;11.80;;;6.10;;
77026;SDS011;65956;52.986;17.490;2023-01-29T08:15:35;11.00;;;6.40;;
77026;SDS011;65956;52.986;17.490;2023-01-29T08:18:03;13.50;;;6.60;;
77026;SDS011;65956;52.986;17.490;2023-01-29T08:20:30;13.80;;;7.10;;
77026;SDS011;65956;52.986;17.490;2023-01-29T08:23:01;12.00;;;6.80;;
77026;SDS011;65956;52.986;17.490;2023-01-29T08:25:30;11.70;;;5.90;;
77026;SDS011;65956;52.986;17.490;2023-01-29T08:27:58;12.90;;;6.70;;
77026;SDS011;65956;52.986;17.490;2023-01-29T08:30:27;15.60;;;7.80;;
77026;SDS011;65956;52.986;17.490;2023-01-29T08:32:56;14.80;;;8.20;;
77026;SDS011;65956;52.986;17.490;2023-01-29T08:35:24;15.70;;;8.30;;
77026;SDS011;65956;52.986;17.490;2023-01-29T08:37:55;16.50;;;9.30;;
77026;SDS011;65956;52.986;17.490;2023-01-29T08:40:28;20.60;;;10.90;;
77026;SDS011;65956;52.986;17.490;2023-01-29T08:42:59;53.30;;;23.90;;
77026;SDS011;65956;52.986;17.490;2023-01-29T08:45:30;67.60;;;29.70;;
77026;SDS011;65956;52.986;17.490;2023-01-29T08:48:01;99.20;;;35.00;;
77026;SDS011;65956;52.986;17.490;2023-01-29T08:50:28;330.50;;;96.20;;
77026;SDS011;65956;52.986;17.490;2023-01-29T08:52:58;376.00;;;135.40;;
77026;SDS011;65956;52.986;17.490;2023-01-29T08:55:26;40.90;;;25.70;;
77026;SDS011;65956;52.986;17.490;2023-01-29T08:57:54;48.80;;;25.70;;
77026;SDS011;65956;52.986;17.490;2023-01-29T09:00:25;80.50;;;36.40;;
77026;SDS011;65956;52.986;17.490;2023-01-29T09:02:52;226.70;;;113.00;;
77026;SDS011;65956;52.986;17.490;2023-01-29T09:05:19;171.00;;;82.80;;
77026;SDS011;65956;52.986;17.490;2023-01-29T09:07:47;104.70;;;60.60;;
77026;SDS011;65956;52.986;17.490;2023-01-29T09:10:14;43.00;;;28.50;;
77026;SDS011;65956;52.986;17.490;2023-01-29T09:12:42;33.60;;;22.20;;
77026;SDS011;65956;52.986;17.490;2023-01-29T09:15:09;21.70;;;10.80;;
77026;SDS011;65956;52.986;17.490;2023-01-29T09:17:37;17.00;;;9.80;;
77026;SDS011;65956;52.986;17.490;2023-01-29T09:20:04;17.50;;;9.80;;
77026;SDS011;65956;52.986;17.490;2023-01-29T09:22:32;17.90;;;8.70;;
77026;SDS011;65956;52.986;17.490;2023-01-29T09:25:00;17.60;;;9.40;;
77026;SDS011;65956;52.986;17.490;2023-01-29T09:27:27;19.80;;;10.60;;
77026;SDS011;65956;52.986;17.490;2023-01-29T09:29:55;17.30;;;9.80;;
77026;SDS011;65956;52.986;17.490;2023-01-29T09:32:22;16.50;;;9.90;;
77026;SDS011;65956;52.986;17.490;2023-01-29T09:34:49;17.20;;;9.40;;
77026;SDS011;65956;52.986;17.490;2023-01-29T09:37:17;14.20;;;8.80;;
77026;SDS011;65956;52.986;17.490;2023-01-29T09:39:44;20.90;;;9.50;;
77026;SDS011;65956;52.986;17.490;2023-01-29T09:42:15;17.00;;;8.20;;
77026;SDS011;65956;52.986;17.490;2023-01-29T09:45:10;19.10;;;9.20;;
77026;SDS011;65956;52.986;17.490;2023-01-29T09:47:41;17.80;;;9.20;;
77026;SDS011;65956;52.986;17.490;2023-01-29T09:52:48;20.50;;;10.40;;
77026;SDS011;65956;52.986;17.490;2023-01-29T09:55:24;63.90;;;32.90;;
77026;SDS011;65956;52.986;17.490;2023-01-29T09:57:58;24.90;;;12.00;;
77026;SDS011;65956;52.986;17.490;2023-01-29T10:03:50;24.90;;;12.70;;
77026;SDS011;65956;52.986;17.490;2023-01-29T10:18:05;23.80;;;12.90;;
77026;SDS011;65956;52.986;17.490;2023-01-29T10:21:10;23.40;;;12.30;;
77026;SDS011;65956;52.986;17.490;2023-01-29T10:26:15;23.00;;;12.10;;
77026;SDS011;65956;52.986;17.490;2023-01-29T10:28:45;22.80;;;11.60;;
77026;SDS011;65956;52.986;17.490;2023-01-29T10:31:21;20.70;;;10.50;;
77026;SDS011;65956;52.986;17.490;2023-01-29T10:33:59;23.90;;;11.30;;
77026;SDS011;65956;52.986;17.490;2023-01-29T10:39:04;20.50;;;10.30;;
77026;SDS011;65956;52.986;17.490;2023-01-29T10:52:25;60.00;;;27.00;;
77026;SDS011;65956;52.986;17.490;2023-01-29T10:55:07;30.50;;;14.60;;
77026;SDS011;65956;52.986;17.490;2023-01-29T10:58:08;62.50;;;26.40;;
77026;SDS011;65956;52.986;17.490;2023-01-29T11:00:56;54.40;;;22.60;;
77026;SDS011;65956;52.986;17.490;2023-01-29T11:06:00;51.50;;;28.80;;
77026;SDS011;65956;52.986;17.490;2023-01-29T11:08:55;25.80;;;15.40;;
77026;SDS011;65956;52.986;17.490;2023-01-29T11:14:03;38.20;;;21.70;;
77026;SDS011;65956;52.986;17.490;2023-01-29T11:16:40;43.00;;;19.00;;
77026;SDS011;65956;52.986;17.490;2023-01-29T11:19:11;29.00;;;14.30;;
77026;SDS011;65956;52.986;17.490;2023-01-29T11:21:58;45.60;;;19.30;;
77026;SDS011;65956;52.986;17.490;2023-01-29T11:24:27;47.00;;;27.00;;
77026;SDS011;65956;52.986;17.490;2023-01-29T11:26:56;26.70;;;14.30;;
77026;SDS011;65956;52.986;17.490;2023-01-29T11:31:56;31.90;;;15.40;;
77026;SDS011;65956;52.986;17.490;2023-01-29T11:37:35;28.60;;;14.40;;
77026;SDS011;65956;52.986;17.490;2023-01-29T11:42:49;42.50;;;21.30;;
77026;SDS011;65956;52.986;17.490;2023-01-29T11:47:54;27.00;;;13.00;;
77026;SDS011;65956;52.986;17.490;2023-01-29T11:50:26;22.90;;;10.60;;
77026;SDS011;65956;52.986;17.490;2023-01-29T11:52:57;21.30;;;10.10;;
77026;SDS011;65956;52.986;17.490;2023-01-29T11:55:27;23.60;;;12.70;;
77026;SDS011;65956;52.986;17.490;2023-01-29T11:58:14;25.80;;;12.80;;
77026;SDS011;65956;52.986;17.490;2023-01-29T12:00:48;26.20;;;12.80;;
77026;SDS011;65956;52.986;17.490;2023-01-29T12:03:24;23.80;;;11.50;;
77026;SDS011;65956;52.986;17.490;2023-01-29T12:08:41;25.20;;;11.50;;
77026;SDS011;65956;52.986;17.490;2023-01-29T12:11:13;35.10;;;16.40;;
77026;SDS011;65956;52.986;17.490;2023-01-29T12:13:53;26.90;;;12.10;;
77026;SDS011;65956;52.986;17.490;2023-01-29T12:19:13;58.70;;;26.20;;
77026;SDS011;65956;52.986;17.490;2023-01-29T12:31:09;27.20;;;15.60;;
77026;SDS011;65956;52.986;17.490;2023-01-29T12:33:49;22.50;;;11.00;;
77026;SDS011;65956;52.986;17.490;2023-01-29T12:36:43;27.90;;;12.80;;
77026;SDS011;65956;52.986;17.490;2023-01-29T12:39:19;21.10;;;10.00;;
77026;SDS011;65956;52.986;17.490;2023-01-29T12:44:38;25.10;;;12.80;;
77026;SDS011;65956;52.986;17.490;2023-01-29T12:47:47;22.90;;;11.60;;
77026;SDS011;65956;52.986;17.490;2023-01-29T12:50:29;25.80;;;12.70;;
77026;SDS011;65956;52.986;17.490;2023-01-29T13:00:56;18.70;;;9.90;;
77026;SDS011;65956;52.986;17.490;2023-01-29T13:03:39;24.00;;;12.50;;
77026;SDS011;65956;52.986;17.490;2023-01-29T13:06:16;25.20;;;11.80;;
77026;SDS011;65956;52.986;17.490;2023-01-29T13:09:05;24.60;;;10.70;;
77026;SDS011;65956;52.986;17.490;2023-01-29T13:16:42;28.40;;;12.50;;
77026;SDS011;65956;52.986;17.490;2023-01-29T13:19:18;152.50;;;49.40;;
77026;SDS011;65956;52.986;17.490;2023-01-29T13:21:59;159.00;;;50.00;;
77026;SDS011;65956;52.986;17.490;2023-01-29T13:24:36;32.80;;;12.60;;
77026;SDS011;65956;52.986;17.490;2023-01-29T13:27:06;27.50;;;13.10;;
77026;SDS011;65956;52.986;17.490;2023-01-29T13:29:43;22.60;;;12.10;;
77026;SDS011;65956;52.986;17.490;2023-01-29T13:32:17;28.50;;;15.20;;
77026;SDS011;65956;52.986;17.490;2023-01-29T13:34:48;31.90;;;19.00;;
77026;SDS011;65956;52.986;17.490;2023-01-29T13:37:21;27.90;;;13.50;;
77026;SDS011;65956;52.986;17.490;2023-01-29T13:45:19;24.40;;;11.70;;
77026;SDS011;65956;52.986;17.490;2023-01-29T13:47:54;25.00;;;11.80;;
77026;SDS011;65956;52.986;17.490;2023-01-29T13:51:01;38.70;;;18.30;;
77026;SDS011;65956;52.986;17.490;2023-01-29T13:58:55;21.90;;;11.30;;
77026;SDS011;65956;52.986;17.490;2023-01-29T14:06:52;22.90;;;11.40;;
77026;SDS011;65956;52.986;17.490;2023-01-29T14:12:38;20.70;;;9.50;;
77026;SDS011;65956;52.986;17.490;2023-01-29T14:17:59;21.50;;;12.40;;
77026;SDS011;65956;52.986;17.490;2023-01-29T14:20:39;22.00;;;11.10;;
77026;SDS011;65956;52.986;17.490;2023-01-29T14:23:20;29.60;;;15.10;;
77026;SDS011;65956;52.986;17.490;2023-01-29T14:25:49;38.50;;;15.50;;
77026;SDS011;65956;52.986;17.490;2023-01-29T14:28:25;47.90;;;19.50;;
77026;SDS011;65956;52.986;17.490;2023-01-29T14:30:57;67.80;;;24.70;;
77026;SDS011;65956;52.986;17.490;2023-01-29T14:33:39;131.00;;;54.90;;
77026;SDS011;65956;52.986;17.490;2023-01-29T14:36:09;33.70;;;17.70;;
77026;SDS011;65956;52.986;17.490;2023-01-29T14:38:44;37.40;;;20.30;;
77026;SDS011;65956;52.986;17.490;2023-01-29T14:41:22;38.70;;;18.50;;
77026;SDS011;65956;52.986;17.490;2023-01-29T14:47:01;31.20;;;15.30;;
77026;SDS011;65956;52.986;17.490;2023-01-29T14:52:17;23.40;;;11.00;;
77026;SDS011;65956;52.986;17.490;2023-01-29T14:54:51;33.80;;;17.60;;
77026;SDS011;65956;52.986;17.490;2023-01-29T14:57:23;30.00;;;16.20;;
77026;SDS011;65956;52.986;17.490;2023-01-29T14:59:53;23.80;;;11.50;;
77026;SDS011;65956;52.986;17.490;2023-01-29T15:02:29;27.90;;;13.30;;
77026;SDS011;65956;52.986;17.490;2023-01-29T15:05:10;26.40;;;13.40;;
77026;SDS011;65956;52.986;17.490;2023-01-29T15:10:47;29.60;;;14.80;;
77026;SDS011;65956;52.986;17.490;2023-01-29T15:13:46;28.40;;;15.10;;
77026;SDS011;65956;52.986;17.490;2023-01-29T15:16:23;29.70;;;13.00;;
77026;SDS011;65956;52.986;17.490;2023-01-29T15:19:03;41.50;;;19.90;;
77026;SDS011;65956;52.986;17.490;2023-01-29T15:22:00;27.20;;;12.20;;
77026;SDS011;65956;52.986;17.490;2023-01-29T15:24:31;27.70;;;14.30;;
77026;SDS011;65956;52.986;17.490;2023-01-29T15:26:59;26.80;;;13.00;;
77026;SDS011;65956;52.986;17.490;2023-01-29T15:29:28;26.30;;;12.20;;
77026;SDS011;65956;52.986;17.490;2023-01-29T15:31:56;27.80;;;14.40;;
77026;SDS011;65956;52.986;17.490;2023-01-29T15:34:26;28.40;;;14.10;;
77026;SDS011;65956;52.986;17.490;2023-01-29T15:36:54;28.90;;;14.40;;
77026;SDS011;65956;52.986;17.490;2023-01-29T15:39:23;32.50;;;14.20;;
77026;SDS011;65956;52.986;17.490;2023-01-29T15:42:03;32.30;;;15.10;;
77026;SDS011;65956;52.986;17.490;2023-01-29T15:44:43;22.30;;;9.70;;
77026;SDS011;65956;52.986;17.490;2023-01-29T15:47:13;32.50;;;16.50;;
77026;SDS011;65956;52.986;17.490;2023-01-29T15:49:43;27.40;;;11.40;;
77026;SDS011;65956;52.986;17.490;2023-01-29T15:54:46;24.20;;;12.30;;
77026;SDS011;65956;52.986;17.490;2023-01-29T15:57:19;32.00;;;13.60;;
77026;SDS011;65956;52.986;17.490;2023-01-29T15:59:53;62.70;;;23.60;;
77026;SDS011;65956;52.986;17.490;2023-01-29T16:05:01;26.90;;;12.50;;
77026;SDS011;65956;52.986;17.490;2023-01-29T16:07:37;112.60;;;38.10;;
77026;SDS011;65956;52.986;17.490;2023-01-29T16:10:06;88.20;;;28.10;;
77026;SDS011;65956;52.986;17.490;2023-01-29T16:12:49;158.80;;;48.10;;
77026;SDS011;65956;52.986;17.490;2023-01-29T16:15:26;193.80;;;53.00;;
77026;SDS011;65956;52.986;17.490;2023-01-29T16:17:58;129.30;;;39.10;;
77026;SDS011;65956;52.986;17.490;2023-01-29T16:20:55;34.40;;;16.70;;
77026;SDS011;65956;52.986;17.490;2023-01-29T16:23:28;27.60;;;15.40;;
77026;SDS011;65956;52.986;17.490;2023-01-29T16:26:06;22.50;;;11.90;;
77026;SDS011;65956;52.986;17.490;2023-01-29T16:28:40;26.80;;;15.00;;
77026;SDS011;65956;52.986;17.490;2023-01-29T16:31:09;42.00;;;23.70;;
77026;SDS011;65956;52.986;17.490;2023-01-29T16:33:41;34.90;;;20.40;;
77026;SDS011;65956;52.986;17.490;2023-01-29T16:36:19;37.60;;;19.20;;
77026;SDS011;65956;52.986;17.490;2023-01-29T16:38:52;26.20;;;14.20;;
77026;SDS011;65956;52.986;17.490;2023-01-29T16:41:27;28.00;;;15.30;;
77026;SDS011;65956;52.986;17.490;2023-01-29T16:44:29;25.50;;;12.20;;
77026;SDS011;65956;52.986;17.490;2023-01-29T16:47:05;41.50;;;17.50;;
77026;SDS011;65956;52.986;17.490;2023-01-29T16:55:13;30.40;;;14.10;;
77026;SDS011;65956;52.986;17.490;2023-01-29T16:57:55;27.60;;;12.80;;
77026;SDS011;65956;52.986;17.490;2023-01-29T17:00:27;25.20;;;11.60;;
77026;SDS011;65956;52.986;17.490;2023-01-29T17:03:06;24.50;;;12.50;;
77026;SDS011;65956;52.986;17.490;2023-01-29T17:05:38;23.10;;;12.30;;
77026;SDS011;65956;52.986;17.490;2023-01-29T17:10:59;23.60;;;11.50;;
77026;SDS011;65956;52.986;17.490;2023-01-29T17:13:39;27.60;;;13.40;;
77026;SDS011;65956;52.986;17.490;2023-01-29T17:18:47;40.70;;;15.90;;
77026;SDS011;65956;52.986;17.490;2023-01-29T17:21:17;26.00;;;11.10;;
77026;SDS011;65956;52.986;17.490;2023-01-29T17:23:45;24.20;;;11.70;;
77026;SDS011;65956;52.986;17.490;2023-01-29T17:26:14;24.80;;;12.90;;
77026;SDS011;65956;52.986;17.490;2023-01-29T17:28:44;21.40;;;11.10;;
77026;SDS011;65956;52.986;17.490;2023-01-29T17:31:16;24.30;;;12.00;;
77026;SDS011;65956;52.986;17.490;2023-01-29T17:33:47;20.80;;;10.60;;
77026;SDS011;65956;52.986;17.490;2023-01-29T17:36:16;23.10;;;13.20;;
77026;SDS011;65956;52.986;17.490;2023-01-29T17:38:45;24.90;;;12.30;;
77026;SDS011;65956;52.986;17.490;2023-01-29T17:43:55;30.70;;;15.30;;
77026;SDS011;65956;52.986;17.490;2023-01-29T17:46:23;27.30;;;15.40;;